Warren, Indiana
Current Conditions -  °F | °C
As of 6:55 AM on Thursday 27 Nov 2014 (Local Time) from KHHG Reporting Station
Overcast Overcast  
Wind Chill: 20°   Ceiling: 5500
Heat Index: 27°   Visibility: 10mi
Dew Point: 22°   Wind: 6mph
Humidity: 84%   Direction: 300°WNW
Pressure: 30.2"   Gusts: NA
Location:  40.68°N, 85.43°W
Report Text: KHHG 271155Z AUTO 30005KT 10SM OVC055 M03/M05 A3020 RMK AO2 T10301053 11021 21030
Loading
Personal Weather Stations






























Interactive Weather Map New forecast layout! Learn more

10-Day Weather Forecast

Advertisements
Track Severe Weather on mobile